KIFP

Details ICAO KIFP
Name Laughlin Bullhead Intl
Region United States
Timezone America/Phoenix (UTC-7.0)
Plans Departing 33
Arriving 49
Stats Elevation 701 ft / 214 m (AMSL)
Location 35.155985° -114.559436°
Runways 1
Magnetic Variation 11.291° E
Sunrise 2018-05-27 12:28:26 UTC / 2018-05-27 05:28:26 Local
Sunset 2018-05-28 02:45:18 UTC / 2018-05-27 19:45:18 Local
Advertisement - Login to hide

Runways

ID Width Length Bearing (true) Bearing (mag) Surface Threshold Offset Overrun Length
16 151 ft / 46 m 7,518 ft / 2,292 m 176.47° 165.18° Asphalt 0 ft / 0 m 699 ft / 213 m
34 151 ft / 46 m 7,518 ft / 2,292 m 356.47° 345.18° Asphalt 0 ft / 0 m 200 ft / 61 m

Map

Weather


0- 5 10 15 20 25 30 35+ Temperature / ° C

Clouds and Precipitation
Forecast for 2018-05-28 00:00 UTC. Updated 6 hours ago

Ground ~20,000 ft ~40,000 ft Winds

METAR

Not found

TAF

TAF KIFP 272320Z 2800/2824 27008KT P6SM FEW150 FM280300 VRB04KT P6SM FEW150 FM281600 35007KT P6SM SKC FM282100 17009KT P6SM SKC

Frequencies

Recorded 119.83 MHz AWOS
Ground 118.25 MHz GND
Unicom 123.90 MHz CTAF
Tower 123.90 MHz TWR
Warning: Do not use this data for real-world aviation or navigation. No guarantee of current accuracy is given.